sensor_id;sensor_type;location;lat;lon;timestamp;P1;durP1;ratioP1;P2;durP2;ratioP2
17494;SDS011;8864;51.970;4.614;2023-06-10T00:00:28;2.45;;;1.80;;
17494;SDS011;8864;51.970;4.614;2023-06-10T00:02:58;2.20;;;1.60;;
17494;SDS011;8864;51.970;4.614;2023-06-10T00:05:25;2.70;;;1.75;;
17494;SDS011;8864;51.970;4.614;2023-06-10T00:07:55;1.80;;;1.58;;
17494;SDS011;8864;51.970;4.614;2023-06-10T00:10:22;1.98;;;1.75;;
17494;SDS011;8864;51.970;4.614;2023-06-10T00:12:49;2.03;;;1.63;;
17494;SDS011;8864;51.970;4.614;2023-06-10T00:15:16;2.00;;;1.60;;
17494;SDS011;8864;51.970;4.614;2023-06-10T00:17:43;2.13;;;1.60;;
17494;SDS011;8864;51.970;4.614;2023-06-10T00:20:12;2.08;;;1.65;;
17494;SDS011;8864;51.970;4.614;2023-06-10T00:22:39;2.67;;;1.92;;
17494;SDS011;8864;51.970;4.614;2023-06-10T00:25:10;2.28;;;1.70;;
17494;SDS011;8864;51.970;4.614;2023-06-10T00:27:37;2.35;;;1.80;;
17494;SDS011;8864;51.970;4.614;2023-06-10T00:30:05;2.45;;;1.80;;
17494;SDS011;8864;51.970;4.614;2023-06-10T00:32:32;2.13;;;1.60;;
17494;SDS011;8864;51.970;4.614;2023-06-10T00:34:59;2.88;;;1.80;;
17494;SDS011;8864;51.970;4.614;2023-06-10T00:37:27;2.10;;;1.90;;
17494;SDS011;8864;51.970;4.614;2023-06-10T00:39:55;2.95;;;2.00;;
17494;SDS011;8864;51.970;4.614;2023-06-10T00:42:22;2.58;;;1.80;;
17494;SDS011;8864;51.970;4.614;2023-06-10T00:44:49;2.95;;;1.85;;
17494;SDS011;8864;51.970;4.614;2023-06-10T00:47:16;6.10;;;1.80;;
17494;SDS011;8864;51.970;4.614;2023-06-10T00:49:44;3.22;;;1.90;;
17494;SDS011;8864;51.970;4.614;2023-06-10T00:52:12;2.78;;;1.90;;
17494;SDS011;8864;51.970;4.614;2023-06-10T00:54:42;3.47;;;1.80;;
17494;SDS011;8864;51.970;4.614;2023-06-10T00:57:10;1.98;;;1.75;;
17494;SDS011;8864;51.970;4.614;2023-06-10T00:59:39;2.70;;;1.67;;
17494;SDS011;8864;51.970;4.614;2023-06-10T01:02:06;2.22;;;1.55;;
17494;SDS011;8864;51.970;4.614;2023-06-10T01:04:34;3.15;;;1.83;;
17494;SDS011;8864;51.970;4.614;2023-06-10T01:07:05;5.40;;;1.90;;
17494;SDS011;8864;51.970;4.614;2023-06-10T01:09:42;1.60;;;1.50;;
17494;SDS011;8864;51.970;4.614;2023-06-10T01:12:17;6.53;;;1.73;;
17494;SDS011;8864;51.970;4.614;2023-06-10T01:14:50;3.08;;;1.90;;
17494;SDS011;8864;51.970;4.614;2023-06-10T01:17:17;2.72;;;1.58;;
17494;SDS011;8864;51.970;4.614;2023-06-10T01:19:44;2.33;;;1.50;;
17494;SDS011;8864;51.970;4.614;2023-06-10T01:22:23;5.40;;;1.55;;
17494;SDS011;8864;51.970;4.614;2023-06-10T01:24:53;2.33;;;1.83;;
17494;SDS011;8864;51.970;4.614;2023-06-10T01:27:24;2.33;;;1.60;;
17494;SDS011;8864;51.970;4.614;2023-06-10T01:29:54;2.75;;;2.00;;
17494;SDS011;8864;51.970;4.614;2023-06-10T01:32:29;3.58;;;1.75;;
17494;SDS011;8864;51.970;4.614;2023-06-10T01:35:01;2.58;;;1.58;;
17494;SDS011;8864;51.970;4.614;2023-06-10T01:37:30;3.67;;;1.60;;
17494;SDS011;8864;51.970;4.614;2023-06-10T01:39:58;2.10;;;1.55;;
17494;SDS011;8864;51.970;4.614;2023-06-10T01:42:25;2.78;;;1.67;;
17494;SDS011;8864;51.970;4.614;2023-06-10T01:44:53;2.50;;;1.40;;
17494;SDS011;8864;51.970;4.614;2023-06-10T01:47:20;5.30;;;1.65;;
17494;SDS011;8864;51.970;4.614;2023-06-10T01:49:47;1.67;;;1.55;;
17494;SDS011;8864;51.970;4.614;2023-06-10T01:52:14;1.98;;;1.60;;
17494;SDS011;8864;51.970;4.614;2023-06-10T01:54:42;2.05;;;1.42;;
17494;SDS011;8864;51.970;4.614;2023-06-10T01:57:09;1.92;;;1.63;;
17494;SDS011;8864;51.970;4.614;2023-06-10T01:59:36;2.92;;;1.60;;
17494;SDS011;8864;51.970;4.614;2023-06-10T02:02:03;3.55;;;1.70;;
17494;SDS011;8864;51.970;4.614;2023-06-10T02:04:30;1.70;;;1.50;;
17494;SDS011;8864;51.970;4.614;2023-06-10T02:06:57;2.03;;;1.60;;
17494;SDS011;8864;51.970;4.614;2023-06-10T02:09:24;2.20;;;1.75;;
17494;SDS011;8864;51.970;4.614;2023-06-10T02:11:52;2.28;;;1.85;;
17494;SDS011;8864;51.970;4.614;2023-06-10T02:14:19;3.20;;;1.98;;
17494;SDS011;8864;51.970;4.614;2023-06-10T02:16:46;3.10;;;1.90;;
17494;SDS011;8864;51.970;4.614;2023-06-10T02:19:13;2.85;;;1.83;;
17494;SDS011;8864;51.970;4.614;2023-06-10T02:21:40;2.50;;;2.13;;
17494;SDS011;8864;51.970;4.614;2023-06-10T02:24:07;3.97;;;1.80;;
17494;SDS011;8864;51.970;4.614;2023-06-10T02:26:34;2.20;;;1.80;;
17494;SDS011;8864;51.970;4.614;2023-06-10T02:29:03;6.38;;;2.03;;
17494;SDS011;8864;51.970;4.614;2023-06-10T02:31:30;2.92;;;2.35;;
17494;SDS011;8864;51.970;4.614;2023-06-10T02:34:00;3.67;;;2.17;;
17494;SDS011;8864;51.970;4.614;2023-06-10T02:36:28;2.60;;;2.20;;
17494;SDS011;8864;51.970;4.614;2023-06-10T02:38:55;3.35;;;2.42;;
17494;SDS011;8864;51.970;4.614;2023-06-10T02:41:22;2.88;;;2.38;;
17494;SDS011;8864;51.970;4.614;2023-06-10T02:43:50;5.50;;;2.17;;
17494;SDS011;8864;51.970;4.614;2023-06-10T02:46:18;3.13;;;2.20;;
17494;SDS011;8864;51.970;4.614;2023-06-10T02:48:45;2.70;;;2.30;;
17494;SDS011;8864;51.970;4.614;2023-06-10T02:51:14;3.13;;;2.50;;
17494;SDS011;8864;51.970;4.614;2023-06-10T02:53:41;3.17;;;2.20;;
17494;SDS011;8864;51.970;4.614;2023-06-10T02:56:08;3.65;;;2.20;;
17494;SDS011;8864;51.970;4.614;2023-06-10T02:58:35;3.15;;;2.33;;
17494;SDS011;8864;51.970;4.614;2023-06-10T03:01:02;2.85;;;2.30;;
17494;SDS011;8864;51.970;4.614;2023-06-10T03:03:30;2.97;;;2.47;;
17494;SDS011;8864;51.970;4.614;2023-06-10T03:05:58;2.63;;;2.20;;
17494;SDS011;8864;51.970;4.614;2023-06-10T03:08:25;4.03;;;2.30;;
17494;SDS011;8864;51.970;4.614;2023-06-10T03:10:52;2.90;;;2.13;;
17494;SDS011;8864;51.970;4.614;2023-06-10T03:13:19;3.05;;;2.30;;
17494;SDS011;8864;51.970;4.614;2023-06-10T03:15:46;3.60;;;2.60;;
17494;SDS011;8864;51.970;4.614;2023-06-10T03:18:13;4.57;;;2.70;;
17494;SDS011;8864;51.970;4.614;2023-06-10T03:20:43;2.50;;;2.00;;
17494;SDS011;8864;51.970;4.614;2023-06-10T03:23:10;2.63;;;2.13;;
17494;SDS011;8864;51.970;4.614;2023-06-10T03:25:37;3.25;;;2.20;;
17494;SDS011;8864;51.970;4.614;2023-06-10T03:28:04;3.30;;;2.13;;
17494;SDS011;8864;51.970;4.614;2023-06-10T03:30:31;2.92;;;2.45;;
17494;SDS011;8864;51.970;4.614;2023-06-10T03:32:58;3.13;;;2.40;;
17494;SDS011;8864;51.970;4.614;2023-06-10T03:35:25;2.80;;;2.05;;
17494;SDS011;8864;51.970;4.614;2023-06-10T03:37:54;2.55;;;2.03;;
17494;SDS011;8864;51.970;4.614;2023-06-10T03:40:20;3.25;;;2.38;;
17494;SDS011;8864;51.970;4.614;2023-06-10T03:42:47;3.63;;;2.58;;
17494;SDS011;8864;51.970;4.614;2023-06-10T03:45:14;3.53;;;2.20;;
17494;SDS011;8864;51.970;4.614;2023-06-10T03:47:42;2.83;;;2.15;;
17494;SDS011;8864;51.970;4.614;2023-06-10T03:50:10;4.80;;;2.40;;
17494;SDS011;8864;51.970;4.614;2023-06-10T03:52:37;3.28;;;2.47;;
17494;SDS011;8864;51.970;4.614;2023-06-10T03:55:06;3.50;;;2.13;;
17494;SDS011;8864;51.970;4.614;2023-06-10T03:57:34;3.22;;;2.22;;
17494;SDS011;8864;51.970;4.614;2023-06-10T04:00:01;3.47;;;1.98;;
17494;SDS011;8864;51.970;4.614;2023-06-10T04:02:33;5.72;;;2.55;;
17494;SDS011;8864;51.970;4.614;2023-06-10T04:05:00;2.95;;;2.00;;
17494;SDS011;8864;51.970;4.614;2023-06-10T04:07:27;4.03;;;2.60;;
17494;SDS011;8864;51.970;4.614;2023-06-10T04:09:55;2.53;;;2.03;;
17494;SDS011;8864;51.970;4.614;2023-06-10T04:12:24;3.67;;;2.15;;
17494;SDS011;8864;51.970;4.614;2023-06-10T04:14:50;3.08;;;1.85;;
17494;SDS011;8864;51.970;4.614;2023-06-10T04:17:18;2.53;;;2.00;;
17494;SDS011;8864;51.970;4.614;2023-06-10T04:19:45;2.60;;;1.92;;
17494;SDS011;8864;51.970;4.614;2023-06-10T04:22:12;3.70;;;2.33;;
17494;SDS011;8864;51.970;4.614;2023-06-10T04:24:39;2.67;;;2.05;;
17494;SDS011;8864;51.970;4.614;2023-06-10T04:27:06;2.50;;;1.85;;
17494;SDS011;8864;51.970;4.614;2023-06-10T04:29:35;4.43;;;2.03;;
17494;SDS011;8864;51.970;4.614;2023-06-10T04:32:02;2.83;;;1.90;;
17494;SDS011;8864;51.970;4.614;2023-06-10T04:34:30;2.30;;;2.03;;
17494;SDS011;8864;51.970;4.614;2023-06-10T04:36:57;3.92;;;2.08;;
17494;SDS011;8864;51.970;4.614;2023-06-10T04:39:24;3.53;;;2.00;;
17494;SDS011;8864;51.970;4.614;2023-06-10T04:41:52;3.47;;;2.28;;
17494;SDS011;8864;51.970;4.614;2023-06-10T04:44:19;3.92;;;2.10;;
17494;SDS011;8864;51.970;4.614;2023-06-10T04:46:47;4.07;;;2.00;;
17494;SDS011;8864;51.970;4.614;2023-06-10T04:49:14;3.25;;;2.00;;
17494;SDS011;8864;51.970;4.614;2023-06-10T04:51:41;3.47;;;2.05;;
17494;SDS011;8864;51.970;4.614;2023-06-10T04:54:08;4.07;;;2.10;;
17494;SDS011;8864;51.970;4.614;2023-06-10T04:56:35;5.65;;;2.05;;
17494;SDS011;8864;51.970;4.614;2023-06-10T04:59:02;4.35;;;2.35;;
17494;SDS011;8864;51.970;4.614;2023-06-10T05:01:29;3.67;;;1.85;;
17494;SDS011;8864;51.970;4.614;2023-06-10T05:03:57;3.65;;;2.25;;
17494;SDS011;8864;51.970;4.614;2023-06-10T05:06:24;4.22;;;2.22;;
17494;SDS011;8864;51.970;4.614;2023-06-10T05:08:51;5.53;;;2.75;;
17494;SDS011;8864;51.970;4.614;2023-06-10T05:11:18;7.28;;;2.95;;
17494;SDS011;8864;51.970;4.614;2023-06-10T05:13:44;9.43;;;3.40;;
17494;SDS011;8864;51.970;4.614;2023-06-10T05:16:11;8.32;;;3.30;;
17494;SDS011;8864;51.970;4.614;2023-06-10T05:18:40;8.73;;;3.55;;
17494;SDS011;8864;51.970;4.614;2023-06-10T05:21:08;7.53;;;3.53;;
17494;SDS011;8864;51.970;4.614;2023-06-10T05:23:36;6.35;;;3.83;;
17494;SDS011;8864;51.970;4.614;2023-06-10T05:26:03;8.02;;;3.55;;
17494;SDS011;8864;51.970;4.614;2023-06-10T05:28:30;9.18;;;4.25;;
17494;SDS011;8864;51.970;4.614;2023-06-10T05:30:57;6.22;;;3.75;;
17494;SDS011;8864;51.970;4.614;2023-06-10T05:33:24;8.35;;;3.88;;
17494;SDS011;8864;51.970;4.614;2023-06-10T05:35:50;6.97;;;3.90;;
17494;SDS011;8864;51.970;4.614;2023-06-10T05:38:19;8.60;;;4.07;;
17494;SDS011;8864;51.970;4.614;2023-06-10T05:40:46;7.65;;;4.18;;
17494;SDS011;8864;51.970;4.614;2023-06-10T05:43:13;8.50;;;4.38;;
17494;SDS011;8864;51.970;4.614;2023-06-10T05:45:41;9.43;;;4.22;;
17494;SDS011;8864;51.970;4.614;2023-06-10T05:48:08;7.35;;;3.70;;
17494;SDS011;8864;51.970;4.614;2023-06-10T05:50:35;7.93;;;3.58;;
17494;SDS011;8864;51.970;4.614;2023-06-10T05:53:04;8.13;;;4.18;;
17494;SDS011;8864;51.970;4.614;2023-06-10T05:55:34;7.90;;;4.00;;
17494;SDS011;8864;51.970;4.614;2023-06-10T05:58:01;11.93;;;4.20;;
17494;SDS011;8864;51.970;4.614;2023-06-10T06:00:28;7.78;;;3.83;;
17494;SDS011;8864;51.970;4.614;2023-06-10T06:02:55;7.78;;;3.92;;
17494;SDS011;8864;51.970;4.614;2023-06-10T06:05:24;12.48;;;4.30;;
17494;SDS011;8864;51.970;4.614;2023-06-10T06:07:51;12.93;;;4.50;;
17494;SDS011;8864;51.970;4.614;2023-06-10T06:10:18;14.77;;;4.95;;
17494;SDS011;8864;51.970;4.614;2023-06-10T06:12:46;11.43;;;4.43;;
17494;SDS011;8864;51.970;4.614;2023-06-10T06:15:13;22.20;;;4.88;;
17494;SDS011;8864;51.970;4.614;2023-06-10T06:17:40;10.60;;;4.35;;
17494;SDS011;8864;51.970;4.614;2023-06-10T06:20:07;12.40;;;4.78;;
17494;SDS011;8864;51.970;4.614;2023-06-10T06:22:34;13.75;;;4.97;;
17494;SDS011;8864;51.970;4.614;2023-06-10T06:25:01;16.15;;;5.38;;
17494;SDS011;8864;51.970;4.614;2023-06-10T06:27:32;13.88;;;4.43;;
17494;SDS011;8864;51.970;4.614;2023-06-10T06:30:00;12.98;;;4.13;;
17494;SDS011;8864;51.970;4.614;2023-06-10T06:32:27;10.45;;;4.68;;
17494;SDS011;8864;51.970;4.614;2023-06-10T06:34:54;10.35;;;4.43;;
17494;SDS011;8864;51.970;4.614;2023-06-10T06:37:21;10.20;;;4.00;;
17494;SDS011;8864;51.970;4.614;2023-06-10T06:39:49;10.82;;;4.40;;
17494;SDS011;8864;51.970;4.614;2023-06-10T06:42:16;10.52;;;4.53;;
17494;SDS011;8864;51.970;4.614;2023-06-10T06:44:44;10.32;;;4.50;;
17494;SDS011;8864;51.970;4.614;2023-06-10T06:47:12;10.27;;;4.00;;
17494;SDS011;8864;51.970;4.614;2023-06-10T06:49:39;12.52;;;4.18;;
17494;SDS011;8864;51.970;4.614;2023-06-10T06:52:06;9.57;;;4.13;;
17494;SDS011;8864;51.970;4.614;2023-06-10T06:54:34;7.82;;;4.00;;
17494;SDS011;8864;51.970;4.614;2023-06-10T06:57:01;13.57;;;4.10;;
17494;SDS011;8864;51.970;4.614;2023-06-10T06:59:28;11.68;;;4.50;;
17494;SDS011;8864;51.970;4.614;2023-06-10T07:01:55;9.20;;;4.05;;
17494;SDS011;8864;51.970;4.614;2023-06-10T07:04:23;7.13;;;4.30;;
17494;SDS011;8864;51.970;4.614;2023-06-10T07:06:50;11.55;;;4.63;;
17494;SDS011;8864;51.970;4.614;2023-06-10T07:09:17;7.75;;;3.88;;
17494;SDS011;8864;51.970;4.614;2023-06-10T07:11:44;14.23;;;4.45;;
17494;SDS011;8864;51.970;4.614;2023-06-10T07:14:11;10.70;;;4.35;;
17494;SDS011;8864;51.970;4.614;2023-06-10T07:16:38;14.45;;;4.60;;
17494;SDS011;8864;51.970;4.614;2023-06-10T07:19:05;8.80;;;4.13;;
17494;SDS011;8864;51.970;4.614;2023-06-10T07:21:33;8.05;;;3.95;;
17494;SDS011;8864;51.970;4.614;2023-06-10T07:24:01;10.77;;;4.50;;
17494;SDS011;8864;51.970;4.614;2023-06-10T07:26:28;8.65;;;3.35;;
17494;SDS011;8864;51.970;4.614;2023-06-10T07:28:55;9.07;;;3.97;;
17494;SDS011;8864;51.970;4.614;2023-06-10T07:31:22;9.35;;;4.47;;
17494;SDS011;8864;51.970;4.614;2023-06-10T07:33:49;8.95;;;4.18;;
17494;SDS011;8864;51.970;4.614;2023-06-10T07:36:16;8.25;;;3.72;;
17494;SDS011;8864;51.970;4.614;2023-06-10T07:38:45;7.20;;;4.20;;
17494;SDS011;8864;51.970;4.614;2023-06-10T07:41:12;6.05;;;4.03;;
17494;SDS011;8864;51.970;4.614;2023-06-10T07:43:39;7.43;;;3.97;;
17494;SDS011;8864;51.970;4.614;2023-06-10T07:46:06;13.88;;;4.57;;
17494;SDS011;8864;51.970;4.614;2023-06-10T07:48:33;9.88;;;3.90;;
17494;SDS011;8864;51.970;4.614;2023-06-10T07:51:00;8.68;;;4.15;;
17494;SDS011;8864;51.970;4.614;2023-06-10T07:53:27;10.23;;;4.35;;
17494;SDS011;8864;51.970;4.614;2023-06-10T07:55:55;7.03;;;4.20;;
17494;SDS011;8864;51.970;4.614;2023-06-10T07:58:22;7.68;;;4.35;;
17494;SDS011;8864;51.970;4.614;2023-06-10T08:00:49;8.48;;;4.53;;
17494;SDS011;8864;51.970;4.614;2023-06-10T08:03:16;5.55;;;3.70;;
17494;SDS011;8864;51.970;4.614;2023-06-10T08:05:43;11.20;;;4.10;;
17494;SDS011;8864;51.970;4.614;2023-06-10T08:08:09;6.75;;;3.80;;
17494;SDS011;8864;51.970;4.614;2023-06-10T08:10:36;10.68;;;3.97;;
17494;SDS011;8864;51.970;4.614;2023-06-10T08:13:05;8.77;;;4.22;;
17494;SDS011;8864;51.970;4.614;2023-06-10T08:15:32;11.27;;;4.13;;
17494;SDS011;8864;51.970;4.614;2023-06-10T08:17:59;14.07;;;4.30;;
17494;SDS011;8864;51.970;4.614;2023-06-10T08:20:25;8.05;;;4.25;;
17494;SDS011;8864;51.970;4.614;2023-06-10T08:22:53;7.45;;;4.30;;
17494;SDS011;8864;51.970;4.614;2023-06-10T08:25:20;7.20;;;3.80;;
17494;SDS011;8864;51.970;4.614;2023-06-10T08:27:47;8.70;;;4.15;;
17494;SDS011;8864;51.970;4.614;2023-06-10T08:30:17;8.95;;;3.83;;
17494;SDS011;8864;51.970;4.614;2023-06-10T08:32:44;7.32;;;4.22;;
17494;SDS011;8864;51.970;4.614;2023-06-10T08:35:11;8.65;;;3.85;;
17494;SDS011;8864;51.970;4.614;2023-06-10T08:37:37;8.35;;;3.78;;
17494;SDS011;8864;51.970;4.614;2023-06-10T08:40:05;6.00;;;3.88;;
17494;SDS011;8864;51.970;4.614;2023-06-10T08:42:35;7.10;;;3.75;;
17494;SDS011;8864;51.970;4.614;2023-06-10T08:45:09;7.88;;;4.45;;
17494;SDS011;8864;51.970;4.614;2023-06-10T08:47:44;10.20;;;4.20;;
17494;SDS011;8864;51.970;4.614;2023-06-10T08:50:12;6.85;;;3.80;;
17494;SDS011;8864;51.970;4.614;2023-06-10T08:52:41;8.25;;;3.90;;
17494;SDS011;8864;51.970;4.614;2023-06-10T08:55:10;10.45;;;4.07;;
17494;SDS011;8864;51.970;4.614;2023-06-10T08:57:40;5.88;;;3.95;;
17494;SDS011;8864;51.970;4.614;2023-06-10T09:00:08;5.35;;;3.28;;
17494;SDS011;8864;51.970;4.614;2023-06-10T09:02:36;6.30;;;3.88;;
17494;SDS011;8864;51.970;4.614;2023-06-10T09:05:05;8.10;;;3.80;;
17494;SDS011;8864;51.970;4.614;2023-06-10T09:07:34;9.52;;;4.30;;
17494;SDS011;8864;51.970;4.614;2023-06-10T09:10:02;6.20;;;3.83;;
17494;SDS011;8864;51.970;4.614;2023-06-10T09:12:32;9.20;;;4.03;;
17494;SDS011;8864;51.970;4.614;2023-06-10T09:15:00;6.93;;;3.78;;
17494;SDS011;8864;51.970;4.614;2023-06-10T09:17:27;5.07;;;3.40;;
17494;SDS011;8864;51.970;4.614;2023-06-10T09:19:54;7.00;;;3.90;;
17494;SDS011;8864;51.970;4.614;2023-06-10T09:22:23;5.32;;;3.55;;
17494;SDS011;8864;51.970;4.614;2023-06-10T09:24:51;9.38;;;3.95;;
17494;SDS011;8864;51.970;4.614;2023-06-10T09:27:29;5.45;;;3.72;;
17494;SDS011;8864;51.970;4.614;2023-06-10T09:29:56;8.13;;;4.30;;
17494;SDS011;8864;51.970;4.614;2023-06-10T09:32:24;5.97;;;3.47;;
17494;SDS011;8864;51.970;4.614;2023-06-10T09:34:51;10.13;;;4.43;;
17494;SDS011;8864;51.970;4.614;2023-06-10T09:37:21;6.18;;;3.72;;
17494;SDS011;8864;51.970;4.614;2023-06-10T09:40:00;10.35;;;3.67;;
17494;SDS011;8864;51.970;4.614;2023-06-10T09:42:31;9.95;;;3.80;;
17494;SDS011;8864;51.970;4.614;2023-06-10T09:44:59;6.93;;;4.10;;
17494;SDS011;8864;51.970;4.614;2023-06-10T09:47:26;7.30;;;3.97;;
17494;SDS011;8864;51.970;4.614;2023-06-10T09:49:53;6.75;;;3.90;;
17494;SDS011;8864;51.970;4.614;2023-06-10T09:52:25;5.80;;;3.88;;
17494;SDS011;8864;51.970;4.614;2023-06-10T09:54:53;5.65;;;3.60;;
17494;SDS011;8864;51.970;4.614;2023-06-10T09:57:24;7.13;;;3.83;;
17494;SDS011;8864;51.970;4.614;2023-06-10T09:59:52;7.65;;;3.80;;
17494;SDS011;8864;51.970;4.614;2023-06-10T10:02:19;6.90;;;3.63;;
17494;SDS011;8864;51.970;4.614;2023-06-10T10:04:47;7.00;;;3.60;;
17494;SDS011;8864;51.970;4.614;2023-06-10T10:07:14;8.18;;;3.53;;
17494;SDS011;8864;51.970;4.614;2023-06-10T10:09:42;4.90;;;3.13;;
17494;SDS011;8864;51.970;4.614;2023-06-10T10:12:10;7.18;;;3.80;;
17494;SDS011;8864;51.970;4.614;2023-06-10T10:14:38;5.70;;;3.75;;
17494;SDS011;8864;51.970;4.614;2023-06-10T10:17:09;5.32;;;3.28;;
17494;SDS011;8864;51.970;4.614;2023-06-10T10:19:39;9.57;;;3.22;;
17494;SDS011;8864;51.970;4.614;2023-06-10T10:22:14;7.30;;;3.83;;
17494;SDS011;8864;51.970;4.614;2023-06-10T10:24:48;5.82;;;3.55;;
17494;SDS011;8864;51.970;4.614;2023-06-10T10:27:18;6.47;;;3.70;;
17494;SDS011;8864;51.970;4.614;2023-06-10T10:29:48;4.68;;;3.13;;
17494;SDS011;8864;51.970;4.614;2023-06-10T10:32:18;4.13;;;3.30;;
17494;SDS011;8864;51.970;4.614;2023-06-10T10:34:49;8.68;;;3.50;;
17494;SDS011;8864;51.970;4.614;2023-06-10T10:37:21;4.72;;;3.28;;
17494;SDS011;8864;51.970;4.614;2023-06-10T10:39:50;5.82;;;3.35;;
17494;SDS011;8864;51.970;4.614;2023-06-10T10:42:17;4.95;;;3.00;;
17494;SDS011;8864;51.970;4.614;2023-06-10T10:44:45;4.95;;;3.53;;
17494;SDS011;8864;51.970;4.614;2023-06-10T10:47:13;5.72;;;3.33;;
17494;SDS011;8864;51.970;4.614;2023-06-10T10:49:43;4.80;;;3.20;;
17494;SDS011;8864;51.970;4.614;2023-06-10T10:52:11;6.18;;;3.38;;
17494;SDS011;8864;51.970;4.614;2023-06-10T10:54:39;4.25;;;2.95;;
17494;SDS011;8864;51.970;4.614;2023-06-10T10:57:16;5.63;;;3.22;;
17494;SDS011;8864;51.970;4.614;2023-06-10T10:59:45;4.65;;;3.22;;
17494;SDS011;8864;51.970;4.614;2023-06-10T11:02:37;8.43;;;3.08;;
17494;SDS011;8864;51.970;4.614;2023-06-10T11:05:11;3.53;;;2.90;;
17494;SDS011;8864;51.970;4.614;2023-06-10T11:07:39;5.50;;;3.25;;
17494;SDS011;8864;51.970;4.614;2023-06-10T11:10:07;5.97;;;3.40;;
17494;SDS011;8864;51.970;4.614;2023-06-10T11:15:24;5.90;;;3.25;;
17494;SDS011;8864;51.970;4.614;2023-06-10T11:20:55;4.35;;;3.08;;
17494;SDS011;8864;51.970;4.614;2023-06-10T11:23:24;5.22;;;2.80;;
17494;SDS011;8864;51.970;4.614;2023-06-10T11:26:12;5.22;;;3.13;;
17494;SDS011;8864;51.970;4.614;2023-06-10T11:28:41;6.60;;;3.20;;
17494;SDS011;8864;51.970;4.614;2023-06-10T11:31:27;6.13;;;3.10;;
17494;SDS011;8864;51.970;4.614;2023-06-10T11:33:55;4.50;;;2.88;;
17494;SDS011;8864;51.970;4.614;2023-06-10T11:36:23;4.18;;;2.53;;
17494;SDS011;8864;51.970;4.614;2023-06-10T11:38:52;4.45;;;2.90;;
17494;SDS011;8864;51.970;4.614;2023-06-10T11:41:21;5.97;;;2.97;;
17494;SDS011;8864;51.970;4.614;2023-06-10T11:43:51;4.53;;;3.05;;
17494;SDS011;8864;51.970;4.614;2023-06-10T11:46:21;4.00;;;2.90;;
17494;SDS011;8864;51.970;4.614;2023-06-10T11:48:51;4.20;;;2.90;;
17494;SDS011;8864;51.970;4.614;2023-06-10T11:51:19;4.25;;;2.90;;
17494;SDS011;8864;51.970;4.614;2023-06-10T11:53:47;3.65;;;2.63;;
17494;SDS011;8864;51.970;4.614;2023-06-10T11:56:19;3.83;;;2.72;;
17494;SDS011;8864;51.970;4.614;2023-06-10T11:58:49;4.93;;;2.90;;
17494;SDS011;8864;51.970;4.614;2023-06-10T12:01:20;3.75;;;2.67;;
17494;SDS011;8864;51.970;4.614;2023-06-10T12:03:49;4.93;;;3.08;;
17494;SDS011;8864;51.970;4.614;2023-06-10T12:06:23;5.10;;;3.10;;
17494;SDS011;8864;51.970;4.614;2023-06-10T12:08:51;5.72;;;3.15;;
17494;SDS011;8864;51.970;4.614;2023-06-10T12:11:19;5.72;;;3.03;;
17494;SDS011;8864;51.970;4.614;2023-06-10T12:13:47;6.05;;;3.30;;
17494;SDS011;8864;51.970;4.614;2023-06-10T12:16:17;4.88;;;3.08;;
17494;SDS011;8864;51.970;4.614;2023-06-10T12:18:44;4.82;;;2.80;;
17494;SDS011;8864;51.970;4.614;2023-06-10T12:21:17;6.05;;;3.20;;
17494;SDS011;8864;51.970;4.614;2023-06-10T12:24:02;4.85;;;3.00;;
17494;SDS011;8864;51.970;4.614;2023-06-10T12:26:37;4.63;;;3.30;;
17494;SDS011;8864;51.970;4.614;2023-06-10T12:32:00;4.40;;;2.92;;
17494;SDS011;8864;51.970;4.614;2023-06-10T12:34:30;3.83;;;2.75;;
17494;SDS011;8864;51.970;4.614;2023-06-10T12:36:59;4.45;;;3.10;;
17494;SDS011;8864;51.970;4.614;2023-06-10T12:39:26;4.13;;;3.08;;
17494;SDS011;8864;51.970;4.614;2023-06-10T12:41:53;3.65;;;3.03;;
17494;SDS011;8864;51.970;4.614;2023-06-10T12:44:33;4.38;;;2.90;;
17494;SDS011;8864;51.970;4.614;2023-06-10T12:47:08;4.38;;;3.10;;
17494;SDS011;8864;51.970;4.614;2023-06-10T12:49:37;4.47;;;3.05;;
17494;SDS011;8864;51.970;4.614;2023-06-10T12:52:05;3.20;;;2.70;;
17494;SDS011;8864;51.970;4.614;2023-06-10T12:54:32;4.32;;;2.95;;
17494;SDS011;8864;51.970;4.614;2023-06-10T12:57:00;4.10;;;2.97;;
17494;SDS011;8864;51.970;4.614;2023-06-10T12:59:26;4.10;;;2.80;;
17494;SDS011;8864;51.970;4.614;2023-06-10T13:01:54;3.10;;;2.50;;
17494;SDS011;8864;51.970;4.614;2023-06-10T13:04:22;4.25;;;3.05;;
17494;SDS011;8864;51.970;4.614;2023-06-10T13:06:49;3.92;;;2.88;;
17494;SDS011;8864;51.970;4.614;2023-06-10T13:09:16;4.20;;;2.88;;
17494;SDS011;8864;51.970;4.614;2023-06-10T13:11:43;3.97;;;3.05;;
17494;SDS011;8864;51.970;4.614;2023-06-10T13:14:10;5.20;;;3.08;;
17494;SDS011;8864;51.970;4.614;2023-06-10T13:16:38;4.97;;;3.00;;
17494;SDS011;8864;51.970;4.614;2023-06-10T13:19:05;4.80;;;3.00;;
17494;SDS011;8864;51.970;4.614;2023-06-10T13:21:33;4.55;;;2.60;;
17494;SDS011;8864;51.970;4.614;2023-06-10T13:24:00;4.45;;;3.08;;
17494;SDS011;8864;51.970;4.614;2023-06-10T13:26:29;5.05;;;3.17;;
17494;SDS011;8864;51.970;4.614;2023-06-10T13:28:55;6.35;;;3.10;;
17494;SDS011;8864;51.970;4.614;2023-06-10T13:31:22;3.83;;;2.67;;
17494;SDS011;8864;51.970;4.614;2023-06-10T13:33:50;5.57;;;2.90;;
17494;SDS011;8864;51.970;4.614;2023-06-10T13:36:17;4.50;;;2.65;;
17494;SDS011;8864;51.970;4.614;2023-06-10T13:38:45;4.13;;;2.83;;
17494;SDS011;8864;51.970;4.614;2023-06-10T13:41:12;4.45;;;2.92;;
17494;SDS011;8864;51.970;4.614;2023-06-10T13:43:39;3.80;;;2.53;;
17494;SDS011;8864;51.970;4.614;2023-06-10T13:46:06;4.43;;;3.10;;
17494;SDS011;8864;51.970;4.614;2023-06-10T13:48:33;4.00;;;3.00;;
17494;SDS011;8864;51.970;4.614;2023-06-10T13:51:00;3.97;;;2.85;;
17494;SDS011;8864;51.970;4.614;2023-06-10T13:53:27;4.55;;;3.20;;
17494;SDS011;8864;51.970;4.614;2023-06-10T13:55:55;3.95;;;2.78;;
17494;SDS011;8864;51.970;4.614;2023-06-10T13:58:22;5.20;;;3.35;;
17494;SDS011;8864;51.970;4.614;2023-06-10T14:00:49;4.55;;;2.88;;
17494;SDS011;8864;51.970;4.614;2023-06-10T14:03:16;5.80;;;2.85;;
17494;SDS011;8864;51.970;4.614;2023-06-10T14:05:43;4.22;;;2.65;;
17494;SDS011;8864;51.970;4.614;2023-06-10T14:08:10;4.28;;;2.72;;
17494;SDS011;8864;51.970;4.614;2023-06-10T14:10:38;3.70;;;2.80;;
17494;SDS011;8864;51.970;4.614;2023-06-10T14:13:06;3.75;;;2.97;;
17494;SDS011;8864;51.970;4.614;2023-06-10T14:15:33;4.10;;;2.70;;
17494;SDS011;8864;51.970;4.614;2023-06-10T14:18:00;5.22;;;3.00;;
17494;SDS011;8864;51.970;4.614;2023-06-10T14:20:27;3.78;;;2.72;;
17494;SDS011;8864;51.970;4.614;2023-06-10T14:22:56;8.00;;;2.88;;
17494;SDS011;8864;51.970;4.614;2023-06-10T14:25:24;3.85;;;2.47;;
17494;SDS011;8864;51.970;4.614;2023-06-10T14:27:51;5.60;;;2.75;;
17494;SDS011;8864;51.970;4.614;2023-06-10T14:30:19;5.93;;;2.80;;
17494;SDS011;8864;51.970;4.614;2023-06-10T14:32:46;3.97;;;2.60;;
17494;SDS011;8864;51.970;4.614;2023-06-10T14:35:13;3.50;;;2.90;;
17494;SDS011;8864;51.970;4.614;2023-06-10T14:37:40;4.97;;;3.03;;
17494;SDS011;8864;51.970;4.614;2023-06-10T14:40:07;5.78;;;2.83;;
17494;SDS011;8864;51.970;4.614;2023-06-10T14:42:35;5.70;;;3.08;;
17494;SDS011;8864;51.970;4.614;2023-06-10T14:45:02;7.60;;;3.08;;
17494;SDS011;8864;51.970;4.614;2023-06-10T14:47:30;3.67;;;2.67;;
17494;SDS011;8864;51.970;4.614;2023-06-10T14:49:57;8.85;;;2.40;;
17494;SDS011;8864;51.970;4.614;2023-06-10T14:52:24;5.70;;;3.17;;
17494;SDS011;8864;51.970;4.614;2023-06-10T14:54:51;3.67;;;2.88;;
17494;SDS011;8864;51.970;4.614;2023-06-10T14:57:18;4.00;;;2.80;;
17494;SDS011;8864;51.970;4.614;2023-06-10T14:59:45;7.65;;;2.95;;
17494;SDS011;8864;51.970;4.614;2023-06-10T15:02:12;3.88;;;3.00;;
17494;SDS011;8864;51.970;4.614;2023-06-10T15:04:40;5.18;;;2.90;;
17494;SDS011;8864;51.970;4.614;2023-06-10T15:07:07;4.55;;;3.17;;
17494;SDS011;8864;51.970;4.614;2023-06-10T15:09:34;4.28;;;3.15;;
17494;SDS011;8864;51.970;4.614;2023-06-10T15:12:01;6.35;;;3.67;;
17494;SDS011;8864;51.970;4.614;2023-06-10T15:14:28;7.55;;;3.45;;